createdAt,value
2022-10-22T00:00:13.495Z,25.17
2022-10-22T00:01:15.475Z,25.83
2022-10-22T00:02:20.170Z,27.60
2022-10-22T00:03:22.350Z,23.95
2022-10-22T00:04:24.335Z,26.45
2022-10-22T00:05:26.284Z,26.45
2022-10-22T00:06:28.271Z,21.65
2022-10-22T00:07:30.680Z,24.20
2022-10-22T00:08:32.814Z,21.73
2022-10-22T00:09:34.791Z,29.63
2022-10-22T00:10:38.531Z,26.70
2022-10-22T00:11:41.169Z,25.38
2022-10-22T00:12:43.247Z,27.20
2022-10-22T00:14:53.352Z,23.10
2022-10-22T00:15:55.173Z,24.45
2022-10-22T00:16:57.020Z,22.50
2022-10-22T00:17:59.169Z,20.55
2022-10-22T00:19:01.203Z,19.92
2022-10-22T00:20:03.254Z,23.60
2022-10-22T00:21:06.085Z,28.27
2022-10-22T00:22:10.240Z,19.98
2022-10-22T00:23:12.240Z,20.33
2022-10-22T00:24:14.223Z,23.27
2022-10-22T00:25:17.235Z,24.45
2022-10-22T00:26:19.105Z,19.67
2022-10-22T00:27:21.218Z,22.10
2022-10-22T00:28:23.767Z,18.45
2022-10-22T00:29:25.832Z,17.73
2022-10-22T00:30:27.653Z,19.23
2022-10-22T00:31:29.627Z,16.45
2022-10-22T00:32:31.530Z,18.25
2022-10-22T00:33:34.087Z,17.25
2022-10-22T00:34:36.057Z,13.68
2022-10-22T00:35:38.091Z,14.52
2022-10-22T00:36:43.836Z,15.45
2022-10-22T00:37:45.777Z,16.23
2022-10-22T00:38:47.612Z,15.13
2022-10-22T00:39:49.542Z,12.77
2022-10-22T00:40:51.802Z,15.43
2022-10-22T00:41:55.648Z,14.70
2022-10-22T00:42:57.673Z,14.35
2022-10-22T00:44:02.094Z,12.65
2022-10-22T00:45:09.846Z,14.23
2022-10-22T00:46:11.785Z,16.52
2022-10-22T00:47:14.966Z,14.48
2022-10-22T00:48:33.655Z,14.95
2022-10-22T00:49:35.492Z,14.75
2022-10-22T00:50:43.339Z,13.27
2022-10-22T00:51:45.462Z,14.25
2022-10-22T00:52:47.889Z,16.90
2022-10-22T00:53:53.731Z,17.10
2022-10-22T00:54:55.818Z,13.55
2022-10-22T00:55:57.928Z,11.95
2022-10-22T00:57:00.337Z,15.07
2022-10-22T00:58:02.747Z,12.05
2022-10-22T00:59:04.825Z,18.10
2022-10-22T01:00:07.594Z,14.77
2022-10-22T01:01:17.017Z,16.50
2022-10-22T01:02:18.979Z,11.68
2022-10-22T01:03:21.440Z,13.20
2022-10-22T01:04:23.206Z,16.88
2022-10-22T01:05:31.018Z,13.00
2022-10-22T01:06:34.426Z,16.52
2022-10-22T01:07:47.085Z,13.25
2022-10-22T01:09:16.592Z,16.33
2022-10-22T01:10:36.492Z,14.48
2022-10-22T01:11:58.639Z,13.20
2022-10-22T01:13:00.513Z,12.77
2022-10-22T01:14:19.275Z,12.43
2022-10-22T01:15:33.794Z,12.20
2022-10-22T01:16:43.814Z,13.60
2022-10-22T01:18:23.949Z,11.93
2022-10-22T01:19:28.574Z,11.88
2022-10-22T01:20:56.887Z,16.23
2022-10-22T01:22:20.170Z,17.83
2022-10-22T01:23:36.397Z,17.40
2022-10-22T01:25:06.359Z,15.27
2022-10-22T01:26:32.935Z,23.35
2022-10-22T01:27:43.916Z,14.73
2022-10-22T01:29:00.940Z,11.77
2022-10-22T01:30:08.754Z,13.32
2022-10-22T01:31:13.845Z,12.57
2022-10-22T01:32:22.024Z,16.17
2022-10-22T01:33:25.574Z,12.63
2022-10-22T01:34:30.419Z,13.43
2022-10-22T01:35:39.118Z,13.88
2022-10-22T01:36:42.444Z,12.13
2022-10-22T01:37:55.148Z,11.77
2022-10-22T01:38:57.610Z,13.90
2022-10-22T01:40:01.686Z,12.73
2022-10-22T01:41:03.882Z,11.38
2022-10-22T01:42:06.217Z,14.40
2022-10-22T01:43:10.268Z,16.45
2022-10-22T01:45:52.775Z,11.10
2022-10-22T01:47:22.326Z,14.57
2022-10-22T01:48:42.829Z,13.88
2022-10-22T01:50:03.409Z,15.85
2022-10-22T01:51:23.688Z,14.15
2022-10-22T01:52:35.396Z,14.90
2022-10-22T01:54:05.927Z,13.77
2022-10-22T01:55:26.326Z,14.15
2022-10-22T01:56:30.842Z,15.68
2022-10-22T01:57:53.776Z,16.67
2022-10-22T01:59:13.827Z,15.98
2022-10-22T02:00:19.442Z,14.00
2022-10-22T02:01:37.609Z,13.50
2022-10-22T02:02:50.669Z,14.93
2022-10-22T02:04:16.148Z,17.52
2022-10-22T02:05:37.364Z,12.88
2022-10-22T02:06:42.800Z,13.05
2022-10-22T02:07:52.286Z,16.83
2022-10-22T02:08:55.838Z,16.75
2022-10-22T02:09:59.876Z,20.17
2022-10-22T02:11:02.952Z,16.08
2022-10-22T02:12:07.087Z,13.32
2022-10-22T02:13:12.387Z,13.70
2022-10-22T02:14:19.135Z,15.38
2022-10-22T02:15:24.033Z,13.20
2022-10-22T02:16:43.202Z,14.02
2022-10-22T02:17:46.831Z,18.05
2022-10-22T02:18:54.084Z,15.68
2022-10-22T02:20:08.116Z,19.88
2022-10-22T02:21:11.074Z,14.65
2022-10-22T02:22:13.285Z,15.52
2022-10-22T02:23:15.515Z,15.07
2022-10-22T02:24:18.778Z,18.17
2022-10-22T02:25:23.950Z,19.83
2022-10-22T02:26:34.870Z,19.25
2022-10-22T02:27:49.065Z,21.15
2022-10-22T02:29:00.505Z,21.08
2022-10-22T02:30:07.047Z,18.38
2022-10-22T02:31:17.143Z,24.30
2022-10-22T02:32:21.914Z,18.05
2022-10-22T02:33:39.019Z,24.23
2022-10-22T02:34:41.988Z,18.85
2022-10-22T02:35:46.268Z,18.75
2022-10-22T02:36:50.571Z,19.80
2022-10-22T02:37:55.561Z,20.48
2022-10-22T02:38:58.890Z,22.35
2022-10-22T02:40:00.755Z,23.20
2022-10-22T02:41:03.258Z,19.88
2022-10-22T02:42:05.220Z,22.88
2022-10-22T02:43:07.571Z,22.40
2022-10-22T02:44:11.126Z,18.77
2022-10-22T02:45:13.150Z,18.35
2022-10-22T02:46:15.254Z,19.73
2022-10-22T02:47:17.131Z,18.50
2022-10-22T02:49:26.035Z,17.30
2022-10-22T02:50:28.115Z,17.02
2022-10-22T02:51:31.020Z,16.13
2022-10-22T02:52:32.806Z,19.52
2022-10-22T02:53:34.729Z,17.83
2022-10-22T02:54:36.619Z,17.25
2022-10-22T02:55:38.531Z,15.55
2022-10-22T02:56:40.458Z,18.13
2022-10-22T02:57:42.756Z,21.83
2022-10-22T02:58:44.811Z,17.35
2022-10-22T02:59:46.659Z,18.85
2022-10-22T03:00:49.680Z,19.52
2022-10-22T03:01:51.856Z,21.33
2022-10-22T03:02:53.818Z,21.58
2022-10-22T03:03:55.725Z,20.77
2022-10-22T03:04:59.247Z,25.80
2022-10-22T03:06:01.204Z,24.58
2022-10-22T03:07:03.427Z,18.38
2022-10-22T03:08:05.475Z,28.65
2022-10-22T03:09:07.390Z,18.85
2022-10-22T03:10:09.950Z,22.08
2022-10-22T03:11:11.902Z,19.42
2022-10-22T03:12:13.894Z,20.55
2022-10-22T03:13:15.636Z,21.35
2022-10-22T03:14:17.510Z,18.85
2022-10-22T03:15:19.504Z,17.27
2022-10-22T03:16:21.676Z,18.20
2022-10-22T03:17:24.082Z,17.52
2022-10-22T03:18:26.014Z,20.15
2022-10-22T03:19:28.162Z,18.95
2022-10-22T03:20:30.051Z,21.25
2022-10-22T03:21:39.367Z,16.55
2022-10-22T03:22:43.824Z,18.23
2022-10-22T03:23:45.821Z,21.20
2022-10-22T03:24:51.371Z,19.77
2022-10-22T03:25:53.369Z,15.90
2022-10-22T03:26:55.379Z,17.83
2022-10-22T03:28:01.272Z,19.90
2022-10-22T03:29:03.256Z,15.55
2022-10-22T03:30:05.788Z,19.80
2022-10-22T03:31:07.846Z,17.65
2022-10-22T03:32:09.858Z,15.05
2022-10-22T03:33:11.943Z,13.55
2022-10-22T03:34:13.830Z,16.83
2022-10-22T03:35:16.310Z,16.38
2022-10-22T03:36:18.291Z,14.73
2022-10-22T03:37:20.636Z,15.65
2022-10-22T03:38:22.536Z,14.73
2022-10-22T03:39:24.524Z,13.48
2022-10-22T03:40:26.711Z,12.32
2022-10-22T03:41:29.331Z,13.63
2022-10-22T03:42:31.708Z,13.52
2022-10-22T03:43:35.625Z,14.00
2022-10-22T03:44:39.557Z,13.70
2022-10-22T03:45:41.730Z,22.10
2022-10-22T03:46:44.307Z,18.85
2022-10-22T03:47:46.324Z,14.50
2022-10-22T03:48:48.237Z,16.25
2022-10-22T03:49:50.626Z,19.30
2022-10-22T03:50:52.688Z,20.30
2022-10-22T03:51:54.886Z,13.77
2022-10-22T03:52:58.357Z,14.80
2022-10-22T03:54:00.330Z,14.95
2022-10-22T03:55:02.088Z,16.52
2022-10-22T03:56:08.831Z,15.25
2022-10-22T03:57:11.736Z,18.10
2022-10-22T03:58:13.589Z,16.35
2022-10-22T03:59:15.779Z,16.63
2022-10-22T04:00:17.941Z,15.00
2022-10-22T04:01:20.040Z,20.50
2022-10-22T04:02:22.150Z,14.95
2022-10-22T04:03:24.175Z,16.08
2022-10-22T04:04:28.260Z,15.98
2022-10-22T04:05:30.062Z,20.15
2022-10-22T04:06:31.971Z,20.13
2022-10-22T04:07:34.141Z,16.63
2022-10-22T04:08:36.541Z,14.80
2022-10-22T04:09:38.588Z,18.52
2022-10-22T04:10:40.471Z,17.30
2022-10-22T04:11:42.468Z,16.92
2022-10-22T04:12:47.883Z,18.27
2022-10-22T04:13:50.367Z,17.30
2022-10-22T04:14:52.238Z,15.15
2022-10-22T04:15:54.230Z,17.20
2022-10-22T04:16:58.649Z,19.88
2022-10-22T04:18:00.574Z,21.33
2022-10-22T04:19:02.706Z,21.70
2022-10-22T04:20:05.393Z,18.60
2022-10-22T04:21:09.173Z,20.02
2022-10-22T04:22:13.627Z,18.60
2022-10-22T04:23:15.469Z,20.35
2022-10-22T04:24:17.359Z,18.67
2022-10-22T04:25:19.861Z,20.00
2022-10-22T04:26:22.292Z,19.10
2022-10-22T04:27:24.286Z,21.50
2022-10-22T04:28:26.433Z,21.23
2022-10-22T04:29:28.324Z,20.77
2022-10-22T04:30:30.151Z,17.38
2022-10-22T04:31:32.190Z,22.00
2022-10-22T04:32:34.185Z,26.67
2022-10-22T04:33:36.203Z,30.92
2022-10-22T04:34:38.021Z,20.42
2022-10-22T04:35:40.268Z,17.63
2022-10-22T04:36:42.194Z,21.98
2022-10-22T04:37:44.027Z,20.55
2022-10-22T04:38:48.826Z,22.27
2022-10-22T04:39:50.779Z,18.10
2022-10-22T04:40:52.836Z,18.98
2022-10-22T04:41:54.671Z,18.77
2022-10-22T04:42:57.249Z,20.67
2022-10-22T04:44:00.359Z,35.50
2022-10-22T04:45:02.688Z,63.83
2022-10-22T04:46:04.820Z,29.42
2022-10-22T04:47:07.050Z,20.23
2022-10-22T04:48:08.930Z,32.08
2022-10-22T04:49:11.815Z,49.15
2022-10-22T04:50:14.145Z,39.08
2022-10-22T04:51:18.491Z,51.35
2022-10-22T04:52:20.664Z,38.03
2022-10-22T04:53:22.501Z,33.35
2022-10-22T04:54:26.756Z,24.75
2022-10-22T04:55:32.320Z,29.05
2022-10-22T04:56:35.265Z,33.22
2022-10-22T04:57:37.347Z,28.80
2022-10-22T04:58:40.032Z,23.80
2022-10-22T04:59:44.422Z,23.13
2022-10-22T05:00:46.348Z,22.85
2022-10-22T05:01:49.563Z,25.42
2022-10-22T05:02:51.801Z,25.10
2022-10-22T05:03:56.727Z,30.27
2022-10-22T05:04:58.719Z,23.27
2022-10-22T05:06:03.825Z,26.58
2022-10-22T05:07:05.906Z,38.30
2022-10-22T05:08:07.851Z,35.65
2022-10-22T05:09:15.353Z,28.15
2022-10-22T05:10:17.479Z,28.45
2022-10-22T05:11:21.736Z,31.35
2022-10-22T05:12:23.926Z,19.58
2022-10-22T05:13:26.068Z,26.98
2022-10-22T05:14:28.043Z,30.50
2022-10-22T05:15:29.967Z,29.17
2022-10-22T05:16:32.877Z,31.00
2022-10-22T05:17:38.658Z,27.35
2022-10-22T05:18:42.866Z,27.15
2022-10-22T05:19:45.170Z,26.52
2022-10-22T05:20:47.503Z,19.88
2022-10-22T05:21:49.558Z,21.30
2022-10-22T05:22:52.609Z,24.08
2022-10-22T05:23:55.283Z,26.30
2022-10-22T05:24:57.126Z,20.70
2022-10-22T05:26:03.553Z,19.83
2022-10-22T05:27:05.635Z,16.63
2022-10-22T05:28:07.588Z,19.63
2022-10-22T05:29:10.153Z,18.38
2022-10-22T05:30:12.363Z,22.63
2022-10-22T05:31:14.691Z,19.08
2022-10-22T05:32:16.666Z,27.85
2022-10-22T05:33:21.921Z,19.67
2022-10-22T05:34:26.046Z,20.13
2022-10-22T05:35:28.082Z,19.17
2022-10-22T05:36:30.138Z,20.00
2022-10-22T05:37:33.792Z,18.83
2022-10-22T05:38:36.249Z,24.70
2022-10-22T05:39:40.437Z,21.92
2022-10-22T05:40:42.317Z,20.30
2022-10-22T05:41:44.464Z,20.63
2022-10-22T05:42:46.494Z,20.98
2022-10-22T05:43:48.810Z,19.10
2022-10-22T05:44:51.165Z,20.25
2022-10-22T05:45:53.043Z,24.17
2022-10-22T05:46:55.334Z,29.98
2022-10-22T05:47:57.237Z,19.55
2022-10-22T05:49:02.403Z,26.35
2022-10-22T05:50:04.586Z,20.42
2022-10-22T05:51:09.181Z,20.92
2022-10-22T05:52:12.549Z,20.30
2022-10-22T05:53:14.432Z,21.23
2022-10-22T05:54:19.096Z,17.83
2022-10-22T05:55:20.887Z,18.17
2022-10-22T05:56:23.800Z,16.70
2022-10-22T05:57:25.573Z,21.38
2022-10-22T05:58:27.462Z,19.88
2022-10-22T05:59:29.248Z,21.98
2022-10-22T06:00:31.141Z,23.58
2022-10-22T06:01:35.599Z,18.48
2022-10-22T06:02:37.996Z,19.58
2022-10-22T06:03:40.198Z,26.98
2022-10-22T06:04:42.152Z,25.83
2022-10-22T06:05:44.113Z,23.98
2022-10-22T06:06:50.390Z,21.80
2022-10-22T06:07:52.413Z,18.50
2022-10-22T06:08:55.931Z,20.30
2022-10-22T06:09:57.910Z,20.23
2022-10-22T06:11:00.136Z,24.70
2022-10-22T06:12:02.945Z,20.85
2022-10-22T06:13:08.221Z,23.33
2022-10-22T06:14:10.819Z,20.38
2022-10-22T06:15:14.236Z,15.45
2022-10-22T06:16:16.268Z,18.60
2022-10-22T06:17:19.804Z,17.35
2022-10-22T06:18:22.146Z,16.60
2022-10-22T06:19:27.050Z,16.15
2022-10-22T06:20:29.150Z,17.35
2022-10-22T06:21:31.816Z,17.60
2022-10-22T06:22:34.100Z,15.02
2022-10-22T06:23:36.369Z,14.93
2022-10-22T06:24:40.491Z,18.63
2022-10-22T06:25:44.880Z,19.27
2022-10-22T06:26:50.780Z,16.75
2022-10-22T06:27:52.868Z,19.10
2022-10-22T06:28:56.910Z,15.65
2022-10-22T06:29:58.849Z,18.52
2022-10-22T06:31:02.274Z,16.27
2022-10-22T06:32:04.242Z,18.73
2022-10-22T06:33:06.111Z,16.02
2022-10-22T06:34:11.728Z,17.50
2022-10-22T06:35:13.744Z,15.80
2022-10-22T06:36:18.638Z,18.02
2022-10-22T06:37:20.581Z,16.85
2022-10-22T06:38:22.558Z,16.95
2022-10-22T06:39:24.584Z,16.98
2022-10-22T06:40:26.564Z,17.65
2022-10-22T06:41:28.896Z,19.48
2022-10-22T06:42:32.190Z,17.88
2022-10-22T06:43:34.304Z,17.10
2022-10-22T06:44:36.274Z,16.83
2022-10-22T06:45:38.395Z,18.83
2022-10-22T06:46:43.491Z,17.27
2022-10-22T06:47:47.436Z,17.42
2022-10-22T06:48:54.196Z,16.23
2022-10-22T06:49:56.202Z,19.15
2022-10-22T06:51:05.991Z,22.00
2022-10-22T06:52:07.909Z,17.40
2022-10-22T06:53:10.231Z,16.48
2022-10-22T06:54:12.458Z,16.13
2022-10-22T06:55:14.956Z,25.15
2022-10-22T06:56:21.517Z,15.05
2022-10-22T06:57:23.617Z,14.75
2022-10-22T06:58:25.522Z,15.65
2022-10-22T06:59:27.440Z,17.00
2022-10-22T07:00:29.455Z,15.75
2022-10-22T07:01:34.251Z,18.15
2022-10-22T07:02:36.382Z,14.30
2022-10-22T07:03:39.583Z,15.15
2022-10-22T07:04:41.493Z,14.65
2022-10-22T07:05:43.585Z,19.17
2022-10-22T07:06:45.565Z,14.80
2022-10-22T07:07:47.948Z,12.68
2022-10-22T07:08:50.685Z,15.55
2022-10-22T07:09:53.405Z,19.45
2022-10-22T07:10:56.759Z,18.98
2022-10-22T07:11:58.696Z,16.58
2022-10-22T07:13:00.687Z,15.38
2022-10-22T07:14:02.690Z,13.50
2022-10-22T07:15:04.832Z,20.35
2022-10-22T07:16:08.088Z,16.98
2022-10-22T07:17:10.273Z,14.25
2022-10-22T07:18:12.408Z,19.55
2022-10-22T07:19:14.960Z,14.85
2022-10-22T07:20:17.594Z,12.82
2022-10-22T07:21:20.883Z,17.50
2022-10-22T07:22:22.916Z,17.75
2022-10-22T07:23:25.132Z,19.50
2022-10-22T07:24:27.170Z,16.02
2022-10-22T07:25:29.054Z,13.50
2022-10-22T07:26:32.833Z,20.08
2022-10-22T07:27:34.860Z,13.75
2022-10-22T07:28:40.034Z,17.83
2022-10-22T07:29:42.325Z,13.70
2022-10-22T07:30:44.511Z,13.00
2022-10-22T07:31:46.470Z,12.93
2022-10-22T07:32:49.229Z,19.40
2022-10-22T07:33:53.688Z,17.75
2022-10-22T07:34:55.772Z,13.38
2022-10-22T07:36:01.166Z,13.85
2022-10-22T07:37:07.760Z,19.85
2022-10-22T07:38:10.517Z,13.65
2022-10-22T07:39:12.608Z,13.70
2022-10-22T07:40:14.673Z,19.60
2022-10-22T07:41:17.681Z,18.20
2022-10-22T07:42:19.780Z,17.75
2022-10-22T07:43:22.016Z,17.08
2022-10-22T07:44:23.850Z,17.25
2022-10-22T07:45:25.692Z,16.02
2022-10-22T07:46:28.062Z,20.40
2022-10-22T07:47:30.078Z,14.90
2022-10-22T07:48:32.326Z,16.05
2022-10-22T07:49:34.360Z,19.85
2022-10-22T07:50:36.368Z,18.88
2022-10-22T07:51:38.361Z,15.05
2022-10-22T07:52:40.490Z,15.30
2022-10-22T07:53:42.863Z,23.05
2022-10-22T07:54:44.948Z,16.42
2022-10-22T07:55:51.220Z,10.73
2022-10-22T07:56:53.128Z,10.98
2022-10-22T07:57:55.274Z,12.20
2022-10-22T07:58:57.359Z,10.75
2022-10-22T07:59:59.714Z,9.52
2022-10-22T08:01:02.501Z,8.88
2022-10-22T08:02:04.627Z,8.23
2022-10-22T08:03:06.523Z,18.13
2022-10-22T08:04:10.088Z,12.70
2022-10-22T08:05:14.449Z,10.38
2022-10-22T08:06:16.606Z,11.90
2022-10-22T08:07:19.689Z,11.88
2022-10-22T08:08:24.885Z,9.25
2022-10-22T08:09:29.357Z,9.35
2022-10-22T08:10:36.482Z,9.60
2022-10-22T08:11:39.545Z,11.43
2022-10-22T08:12:42.399Z,10.63
2022-10-22T08:13:45.851Z,11.27
2022-10-22T08:14:48.867Z,12.00
2022-10-22T08:15:52.471Z,10.63
2022-10-22T08:16:58.448Z,8.68
2022-10-22T08:18:00.487Z,11.57
2022-10-22T08:19:02.504Z,10.93
2022-10-22T08:20:04.619Z,12.35
2022-10-22T08:21:06.888Z,11.98
2022-10-22T08:22:08.820Z,13.52
2022-10-22T08:23:11.073Z,10.10
2022-10-22T08:24:15.862Z,9.38
2022-10-22T08:25:18.621Z,9.88
2022-10-22T08:26:21.101Z,10.13
2022-10-22T08:27:23.655Z,11.90
2022-10-22T08:28:26.526Z,10.98
2022-10-22T08:29:28.595Z,14.52
2022-10-22T08:30:30.595Z,8.02
2022-10-22T08:31:32.544Z,8.43
2022-10-22T08:32:37.240Z,10.77
2022-10-22T08:33:40.206Z,9.20
2022-10-22T08:34:42.198Z,10.65
2022-10-22T08:35:49.716Z,11.40
2022-10-22T08:36:51.865Z,15.95
2022-10-22T08:37:54.409Z,11.52
2022-10-22T08:38:56.595Z,12.38
2022-10-22T08:39:58.484Z,9.95
2022-10-22T08:41:13.589Z,9.30
2022-10-22T08:42:40.290Z,13.27
2022-10-22T08:43:52.881Z,12.13
2022-10-22T08:44:57.800Z,10.55
2022-10-22T08:46:13.664Z,13.50
2022-10-22T08:47:40.360Z,10.93
2022-10-22T08:48:45.167Z,11.10
2022-10-22T08:49:47.595Z,9.88
2022-10-22T08:50:53.481Z,10.85
2022-10-22T08:51:57.748Z,12.93
2022-10-22T08:53:07.585Z,13.60
2022-10-22T08:54:48.576Z,13.50
2022-10-22T08:55:54.052Z,10.70
2022-10-22T08:57:19.028Z,34.97
2022-10-22T08:58:38.988Z,17.00
2022-10-22T08:59:48.237Z,17.02
2022-10-22T09:01:17.982Z,10.88
2022-10-22T09:02:41.236Z,11.90
2022-10-22T09:03:49.212Z,12.63
2022-10-22T09:05:01.751Z,16.45
2022-10-22T09:06:12.623Z,8.57
2022-10-22T09:08:19.263Z,8.43
2022-10-22T09:09:23.783Z,12.43
2022-10-22T09:10:29.545Z,11.23
2022-10-22T09:11:38.251Z,16.70
2022-10-22T09:12:40.442Z,17.35
2022-10-22T09:13:44.945Z,31.38
2022-10-22T09:14:46.876Z,9.82
2022-10-22T09:15:59.208Z,9.55
2022-10-22T09:17:38.800Z,7.57
2022-10-22T09:18:46.924Z,8.52
2022-10-22T09:20:27.028Z,10.10
2022-10-22T09:22:06.363Z,11.23
2022-10-22T09:23:40.062Z,13.57
2022-10-22T09:24:47.860Z,8.95
2022-10-22T09:25:52.021Z,8.88
2022-10-22T09:26:56.946Z,10.65
2022-10-22T09:27:59.700Z,7.47
2022-10-22T09:29:02.841Z,8.80
2022-10-22T09:30:05.413Z,9.75
2022-10-22T09:31:14.580Z,7.75
2022-10-22T09:32:17.691Z,7.22
2022-10-22T09:33:26.642Z,9.70
2022-10-22T09:34:32.769Z,13.23
2022-10-22T09:35:52.933Z,15.63
2022-10-22T09:37:06.594Z,8.70
2022-10-22T09:38:11.895Z,10.05
2022-10-22T09:39:52.287Z,11.13
2022-10-22T09:40:57.024Z,15.70
2022-10-22T09:41:59.123Z,7.70
2022-10-22T09:43:01.329Z,8.68
2022-10-22T09:44:07.278Z,13.75
2022-10-22T09:45:25.829Z,7.18
2022-10-22T09:46:30.163Z,8.75
2022-10-22T09:48:02.616Z,7.18
2022-10-22T09:49:12.953Z,8.68
2022-10-22T09:50:37.802Z,9.65
2022-10-22T09:51:42.642Z,13.20
2022-10-22T09:52:45.103Z,9.25
2022-10-22T09:53:57.877Z,8.70
2022-10-22T09:55:02.790Z,14.73
2022-10-22T09:56:17.023Z,7.75
2022-10-22T09:57:23.324Z,9.00
2022-10-22T09:58:26.013Z,9.15
2022-10-22T09:59:33.940Z,8.95
2022-10-22T10:00:46.179Z,7.82
2022-10-22T10:02:04.960Z,6.78
2022-10-22T10:03:22.366Z,12.43
2022-10-22T10:05:31.461Z,8.88
2022-10-22T10:06:35.210Z,6.80
2022-10-22T10:07:40.275Z,10.90
2022-10-22T10:08:42.609Z,10.38
2022-10-22T10:09:44.730Z,10.85
2022-10-22T10:11:00.076Z,16.77
2022-10-22T10:12:17.634Z,12.52
2022-10-22T10:13:46.821Z,12.27
2022-10-22T10:15:05.725Z,8.93
2022-10-22T10:16:41.050Z,13.48
2022-10-22T10:18:25.480Z,8.52
2022-10-22T10:20:00.027Z,8.45
2022-10-22T10:21:44.373Z,6.80
2022-10-22T10:23:02.698Z,12.85
2022-10-22T10:24:25.239Z,6.72
2022-10-22T10:25:40.192Z,8.73
2022-10-22T10:27:23.911Z,8.80
2022-10-22T10:28:59.484Z,11.82
2022-10-22T10:30:10.295Z,11.35
2022-10-22T10:31:31.561Z,10.45
2022-10-22T10:32:52.588Z,10.57
2022-10-22T10:34:17.388Z,6.68
2022-10-22T10:35:31.863Z,13.70
2022-10-22T10:36:55.851Z,9.45
2022-10-22T10:38:31.617Z,7.65
2022-10-22T10:39:55.387Z,8.50
2022-10-22T10:41:19.191Z,9.48
2022-10-22T10:42:30.198Z,9.75
2022-10-22T10:45:27.324Z,8.20
2022-10-22T10:47:08.293Z,9.07
2022-10-22T10:48:22.519Z,6.88
2022-10-22T10:49:27.074Z,10.25
2022-10-22T10:50:34.077Z,7.50
2022-10-22T10:52:16.289Z,10.35
2022-10-22T10:53:58.974Z,8.48
2022-10-22T10:55:22.779Z,7.43
2022-10-22T10:56:39.052Z,14.80
2022-10-22T10:57:54.385Z,7.43
2022-10-22T10:59:32.615Z,9.40
2022-10-22T11:00:47.862Z,7.65
2022-10-22T11:02:20.844Z,7.93
2022-10-22T11:03:34.773Z,10.07
2022-10-22T11:04:55.672Z,12.27
2022-10-22T11:06:03.859Z,11.38
2022-10-22T11:07:16.880Z,10.52
2022-10-22T11:08:27.370Z,11.40
2022-10-22T11:09:44.819Z,11.68
2022-10-22T11:11:01.724Z,11.07
2022-10-22T11:12:11.021Z,8.65
2022-10-22T11:13:49.238Z,8.02
2022-10-22T11:15:37.636Z,8.10
2022-10-22T11:16:46.686Z,14.15
2022-10-22T11:17:49.290Z,10.18
2022-10-22T11:19:22.982Z,10.00
2022-10-22T11:20:52.466Z,8.88
2022-10-22T11:22:05.447Z,13.15
2022-10-22T11:23:20.651Z,7.63
2022-10-22T11:24:28.612Z,8.48
2022-10-22T11:25:44.754Z,9.50
2022-10-22T11:26:54.159Z,8.70
2022-10-22T11:28:11.370Z,8.95
2022-10-22T11:29:19.652Z,7.28
2022-10-22T11:30:24.764Z,9.68
2022-10-22T11:31:27.399Z,9.18
2022-10-22T11:32:30.378Z,10.00
2022-10-22T11:34:04.746Z,8.65
2022-10-22T11:35:20.210Z,7.65
2022-10-22T11:36:28.498Z,9.82
2022-10-22T11:37:39.217Z,9.05
2022-10-22T11:38:41.939Z,9.35
2022-10-22T11:39:46.278Z,7.15
2022-10-22T11:41:01.922Z,11.10
2022-10-22T11:42:10.805Z,8.40
2022-10-22T11:43:28.489Z,10.02
2022-10-22T11:44:32.700Z,10.52
2022-10-22T11:45:35.914Z,11.02
2022-10-22T11:46:44.377Z,11.00
2022-10-22T11:48:15.625Z,13.63
2022-10-22T11:49:22.397Z,12.25
2022-10-22T11:50:25.974Z,16.15
2022-10-22T11:51:32.635Z,11.45
2022-10-22T11:52:37.188Z,9.32
2022-10-22T11:53:39.445Z,12.45
2022-10-22T11:54:45.232Z,15.40
2022-10-22T11:55:49.388Z,15.60
2022-10-22T11:57:17.393Z,13.68
2022-10-22T11:58:52.144Z,9.27
2022-10-22T11:59:58.100Z,14.85
2022-10-22T12:01:03.551Z,17.10
2022-10-22T12:02:23.342Z,10.73
2022-10-22T12:03:44.112Z,11.65
2022-10-22T12:04:46.065Z,14.68
2022-10-22T12:06:11.902Z,14.35
2022-10-22T12:07:55.060Z,11.27
2022-10-22T12:09:01.923Z,10.32
2022-10-22T12:10:19.116Z,9.68
2022-10-22T12:11:41.242Z,15.13
2022-10-22T12:12:43.763Z,13.10
2022-10-22T12:13:52.435Z,10.60
2022-10-22T12:14:57.975Z,11.77
2022-10-22T12:16:03.978Z,13.27
2022-10-22T12:17:12.655Z,12.02
2022-10-22T12:18:15.818Z,10.95
2022-10-22T12:19:27.110Z,15.20
2022-10-22T12:20:30.208Z,10.00
2022-10-22T12:21:33.807Z,11.93
2022-10-22T12:22:39.769Z,11.23
2022-10-22T12:23:42.652Z,12.85
2022-10-22T12:24:47.649Z,11.65
2022-10-22T12:25:49.626Z,13.32
2022-10-22T12:26:52.974Z,15.35
2022-10-22T12:27:59.700Z,11.80
2022-10-22T12:29:07.045Z,12.13
2022-10-22T12:30:24.311Z,19.02
2022-10-22T12:31:26.541Z,13.25
2022-10-22T12:32:38.252Z,14.77
2022-10-22T12:33:40.493Z,10.63
2022-10-22T12:34:52.845Z,16.10
2022-10-22T12:35:57.874Z,18.77
2022-10-22T12:37:00.085Z,14.02
2022-10-22T12:38:08.542Z,11.23
2022-10-22T12:39:14.579Z,12.45
2022-10-22T12:40:17.725Z,24.55
2022-10-22T12:41:21.258Z,12.40
2022-10-22T12:42:23.988Z,10.73
2022-10-22T12:43:30.631Z,14.95
2022-10-22T12:44:36.078Z,14.75
2022-10-22T12:45:39.508Z,12.65
2022-10-22T12:46:43.435Z,12.32
2022-10-22T12:47:54.123Z,11.00
2022-10-22T12:49:02.930Z,15.13
2022-10-22T12:50:05.949Z,8.07
2022-10-22T12:51:09.774Z,9.95
2022-10-22T12:52:17.857Z,12.55
2022-10-22T12:53:33.440Z,11.10
2022-10-22T12:54:35.736Z,20.65
2022-10-22T12:55:39.037Z,12.38
2022-10-22T12:56:40.966Z,12.15
2022-10-22T12:57:43.027Z,12.38
2022-10-22T12:58:53.136Z,11.40
2022-10-22T12:59:55.240Z,14.27
2022-10-22T13:01:02.358Z,14.65
2022-10-22T13:02:24.716Z,16.48
2022-10-22T13:03:30.541Z,16.85
2022-10-22T13:04:37.145Z,10.07
2022-10-22T13:05:39.930Z,14.30
2022-10-22T13:06:46.781Z,10.55
2022-10-22T13:07:51.949Z,14.63
2022-10-22T13:08:56.499Z,15.35
2022-10-22T13:10:01.522Z,15.10
2022-10-22T13:11:08.714Z,13.45
2022-10-22T13:12:16.769Z,10.30
2022-10-22T13:13:46.500Z,16.85
2022-10-22T13:14:48.506Z,18.48
2022-10-22T13:15:50.437Z,10.90
2022-10-22T13:17:10.473Z,8.32
2022-10-22T13:18:19.722Z,12.43
2022-10-22T13:19:48.169Z,11.80
2022-10-22T13:20:52.297Z,9.38
2022-10-22T13:21:54.777Z,13.55
2022-10-22T13:23:07.815Z,15.73
2022-10-22T13:24:27.741Z,11.52
2022-10-22T13:25:31.774Z,8.15
2022-10-22T13:26:36.544Z,12.25
2022-10-22T13:27:44.382Z,14.75
2022-10-22T13:28:57.642Z,9.32
2022-10-22T13:30:03.273Z,12.45
2022-10-22T13:31:46.038Z,11.82
2022-10-22T13:32:57.677Z,6.63
2022-10-22T13:34:09.844Z,9.75
2022-10-22T13:35:20.906Z,11.52
2022-10-22T13:36:23.849Z,12.48
2022-10-22T13:37:26.277Z,9.43
2022-10-22T13:38:28.938Z,13.30
2022-10-22T13:39:32.974Z,12.07
2022-10-22T13:40:34.916Z,14.32
2022-10-22T13:42:41.878Z,10.65
2022-10-22T13:43:43.934Z,13.90
2022-10-22T13:44:45.921Z,13.95
2022-10-22T13:45:52.307Z,9.52
2022-10-22T13:46:56.386Z,11.15
2022-10-22T13:47:58.331Z,10.77
2022-10-22T13:49:00.619Z,13.40
2022-10-22T13:50:07.528Z,11.77
2022-10-22T13:51:18.944Z,14.32
2022-10-22T13:52:34.581Z,14.85
2022-10-22T13:53:36.560Z,11.10
2022-10-22T13:54:39.219Z,10.23
2022-10-22T13:55:41.096Z,21.90
2022-10-22T13:56:42.990Z,9.07
2022-10-22T13:57:45.410Z,12.73
2022-10-22T13:58:48.388Z,14.20
2022-10-22T13:59:50.335Z,9.18
2022-10-22T14:00:55.983Z,13.30
2022-10-22T14:01:57.819Z,11.98
2022-10-22T14:03:00.330Z,11.65
2022-10-22T14:04:05.303Z,13.68
2022-10-22T14:05:09.828Z,10.35
2022-10-22T14:06:16.175Z,7.28
2022-10-22T14:07:18.273Z,15.40
2022-10-22T14:08:21.832Z,14.25
2022-10-22T14:09:23.834Z,9.90
2022-10-22T14:10:26.014Z,9.27
2022-10-22T14:11:28.478Z,11.98
2022-10-22T14:12:30.426Z,15.80
2022-10-22T14:13:32.467Z,11.10
2022-10-22T14:14:35.194Z,11.70
2022-10-22T14:15:37.620Z,9.48
2022-10-22T14:16:39.553Z,15.25
2022-10-22T14:17:49.644Z,10.32
2022-10-22T14:18:51.875Z,15.73
2022-10-22T14:19:54.254Z,13.82
2022-10-22T14:20:59.645Z,15.43
2022-10-22T14:22:01.810Z,14.18
2022-10-22T14:23:14.915Z,11.02
2022-10-22T14:24:17.025Z,13.55
2022-10-22T14:25:25.238Z,11.35
2022-10-22T14:26:33.009Z,9.45
2022-10-22T14:27:34.928Z,11.63
2022-10-22T14:28:41.224Z,16.23
2022-10-22T14:29:58.574Z,9.07
2022-10-22T14:31:01.614Z,13.13
2022-10-22T14:32:03.645Z,12.38
2022-10-22T14:33:21.532Z,18.98
2022-10-22T14:34:23.415Z,25.83
2022-10-22T14:35:25.892Z,24.75